createdAt,value
2023-03-12T00:02:25.000Z,11.5
2023-03-12T00:07:25.000Z,9.94
2023-03-12T00:12:25.000Z,10.25
2023-03-12T00:17:26.000Z,11.96
2023-03-12T00:22:25.000Z,12.05
2023-03-12T00:27:25.000Z,11.4
2023-03-12T00:32:26.000Z,11.02
2023-03-12T00:37:26.000Z,10.35
2023-03-12T00:42:25.000Z,9.93
2023-03-12T00:47:25.000Z,10.65
2023-03-12T00:52:26.000Z,12.62
2023-03-12T00:57:26.000Z,12.23
2023-03-12T01:02:25.000Z,9.78
2023-03-12T01:07:25.000Z,10.5
2023-03-12T01:12:25.000Z,11.17
2023-03-12T01:17:25.000Z,10.64
2023-03-12T01:22:25.000Z,9.75
2023-03-12T01:27:25.000Z,10.32
2023-03-12T01:32:25.000Z,10.86
2023-03-12T01:37:25.000Z,10.37
2023-03-12T01:42:25.000Z,9.75
2023-03-12T01:47:25.000Z,9.78
2023-03-12T01:52:25.000Z,9.74
2023-03-12T01:57:25.000Z,10.48
2023-03-12T02:02:25.000Z,10.99
2023-03-12T02:07:25.000Z,9.64
2023-03-12T02:12:25.000Z,9.41
2023-03-12T02:17:25.000Z,10.49
2023-03-12T02:22:25.000Z,10.46
2023-03-12T02:27:25.000Z,10.55
2023-03-12T02:32:25.000Z,10.28
2023-03-12T02:37:25.000Z,10.5
2023-03-12T02:42:24.000Z,11.2
2023-03-12T02:47:25.000Z,10.94
2023-03-12T02:52:25.000Z,11.2
2023-03-12T02:57:25.000Z,11.53
2023-03-12T03:02:25.000Z,11.59
2023-03-12T03:07:25.000Z,11.73
2023-03-12T03:12:25.000Z,11.42
2023-03-12T03:17:25.000Z,11.72
2023-03-12T03:22:25.000Z,11.87
2023-03-12T03:27:24.000Z,11.27
2023-03-12T03:32:26.000Z,12.18
2023-03-12T03:37:25.000Z,12.64
2023-03-12T03:42:26.000Z,9.61
2023-03-12T03:47:25.000Z,8.07
2023-03-12T03:52:25.000Z,9.35
2023-03-12T03:57:25.000Z,9.18
2023-03-12T04:02:25.000Z,10.08
2023-03-12T04:07:25.000Z,11.7
2023-03-12T04:12:25.000Z,12.18
2023-03-12T04:17:25.000Z,10.17
2023-03-12T04:22:25.000Z,9.29
2023-03-12T04:27:25.000Z,11.63
2023-03-12T04:32:26.000Z,11.05
2023-03-12T04:37:25.000Z,11.06
2023-03-12T04:42:25.000Z,10.98
2023-03-12T04:47:25.000Z,11.23
2023-03-12T04:52:25.000Z,11.09
2023-03-12T04:57:25.000Z,10.28
2023-03-12T05:02:25.000Z,10.73
2023-03-12T05:07:25.000Z,12.02
2023-03-12T05:12:26.000Z,10.88
2023-03-12T05:17:26.000Z,10.32
2023-03-12T05:22:25.000Z,11.15
2023-03-12T05:27:25.000Z,10.51
2023-03-12T05:32:25.000Z,9.9
2023-03-12T05:37:25.000Z,9.89
2023-03-12T05:42:25.000Z,10.21
2023-03-12T05:47:26.000Z,10.31
2023-03-12T05:52:25.000Z,10.57
2023-03-12T05:57:25.000Z,10.77
2023-03-12T06:02:26.000Z,10.4
2023-03-12T06:07:25.000Z,9.99
2023-03-12T06:12:26.000Z,10.61
2023-03-12T06:17:25.000Z,12.4
2023-03-12T06:22:26.000Z,12.82
2023-03-12T06:27:25.000Z,10.13
2023-03-12T06:32:26.000Z,10.95
2023-03-12T06:37:25.000Z,10.91
2023-03-12T06:42:25.000Z,10.11
2023-03-12T06:47:25.000Z,10.21
2023-03-12T06:52:25.000Z,9.48
2023-03-12T06:57:25.000Z,9.18
2023-03-12T07:02:26.000Z,10.44
2023-03-12T07:07:26.000Z,10.79
2023-03-12T07:12:25.000Z,10.37
2023-03-12T07:17:25.000Z,9.7
2023-03-12T07:22:24.000Z,10.49
2023-03-12T07:27:25.000Z,10.82
2023-03-12T07:32:25.000Z,9.97
2023-03-12T07:37:25.000Z,10.23
2023-03-12T07:42:24.000Z,10.23
2023-03-12T07:47:25.000Z,9.66
2023-03-12T07:52:25.000Z,10.11
2023-03-12T07:57:25.000Z,11.57
2023-03-12T08:02:26.000Z,11.41
2023-03-12T08:07:25.000Z,10.62
2023-03-12T08:12:24.000Z,10.59
2023-03-12T08:17:25.000Z,10.35
2023-03-12T08:22:25.000Z,10.83
2023-03-12T08:27:25.000Z,11.29
2023-03-12T08:32:25.000Z,12.39
2023-03-12T08:37:25.000Z,10.93
2023-03-12T08:42:25.000Z,10.68
2023-03-12T08:47:25.000Z,10.23
2023-03-12T08:52:25.000Z,9.98
2023-03-12T08:57:25.000Z,11.82
2023-03-12T09:02:25.000Z,12.35
2023-03-12T09:07:25.000Z,12.14
2023-03-12T09:12:25.000Z,11.02
2023-03-12T09:17:25.000Z,10.51
2023-03-12T09:22:25.000Z,10.89
2023-03-12T09:27:25.000Z,12.24
2023-03-12T09:32:25.000Z,12.66
2023-03-12T09:37:25.000Z,11.74
2023-03-12T09:42:25.000Z,9.62
2023-03-12T09:47:25.000Z,10.28
2023-03-12T09:52:25.000Z,10.97
2023-03-12T09:57:25.000Z,12.29
2023-03-12T10:02:25.000Z,12.41
2023-03-12T10:07:26.000Z,12.85
2023-03-12T10:12:25.000Z,11.45
2023-03-12T10:17:25.000Z,10.96
2023-03-12T10:22:26.000Z,10.95
2023-03-12T10:27:25.000Z,10.87
2023-03-12T10:32:25.000Z,10.59
2023-03-12T10:37:25.000Z,12.1
2023-03-12T10:42:26.000Z,12.95
2023-03-12T10:47:25.000Z,12.41
2023-03-12T10:52:26.000Z,12.34
2023-03-12T10:57:25.000Z,13.05
2023-03-12T11:02:25.000Z,12.83
2023-03-12T11:07:25.000Z,11.9
2023-03-12T11:12:25.000Z,12.06
2023-03-12T11:17:26.000Z,12.29
2023-03-12T11:27:26.000Z,11.23
2023-03-12T11:32:25.000Z,11.22
2023-03-12T11:37:25.000Z,13.32
2023-03-12T11:42:25.000Z,12.36
2023-03-12T11:47:25.000Z,11.59
2023-03-12T11:52:25.000Z,11.96
2023-03-12T11:57:25.000Z,11.82
2023-03-12T12:02:25.000Z,11.88
2023-03-12T12:07:25.000Z,11.53
2023-03-12T12:12:26.000Z,12.31
2023-03-12T12:17:25.000Z,12.2
2023-03-12T12:22:25.000Z,12.85
2023-03-12T12:27:25.000Z,12.87
2023-03-12T12:32:25.000Z,13.79
2023-03-12T12:37:26.000Z,12.45
2023-03-12T12:42:25.000Z,11.39
2023-03-12T12:47:26.000Z,11.83
2023-03-12T12:52:25.000Z,12.23
2023-03-12T12:57:25.000Z,12.33
2023-03-12T13:02:25.000Z,11.71
2023-03-12T13:07:25.000Z,12.32
2023-03-12T13:12:26.000Z,11.24
2023-03-12T13:17:26.000Z,11.19
2023-03-12T13:22:25.000Z,12.89
2023-03-12T13:27:25.000Z,12.05
2023-03-12T13:32:25.000Z,11.56
2023-03-12T13:37:26.000Z,11.86
2023-03-12T13:42:25.000Z,12.08
2023-03-12T13:47:25.000Z,11.54
2023-03-12T13:52:26.000Z,11.43
2023-03-12T13:57:25.000Z,11.92
2023-03-12T14:02:25.000Z,9.9
2023-03-12T14:07:25.000Z,10.25
2023-03-12T14:12:25.000Z,12.28
2023-03-12T14:17:25.000Z,11.3
2023-03-12T14:22:25.000Z,11.05
2023-03-12T14:27:25.000Z,11.24
2023-03-12T14:32:26.000Z,10.73
2023-03-12T14:37:26.000Z,11.6
2023-03-12T14:42:25.000Z,13.76
2023-03-12T14:47:26.000Z,12.72
2023-03-12T14:52:25.000Z,11.02
2023-03-12T14:57:25.000Z,11.25
2023-03-12T15:02:26.000Z,9.65
2023-03-12T15:07:25.000Z,10.45
2023-03-12T15:12:26.000Z,11.57
2023-03-12T15:17:25.000Z,11.93
2023-03-12T15:22:25.000Z,12.12
2023-03-12T15:27:25.000Z,12.18
2023-03-12T15:32:25.000Z,11.73
2023-03-12T15:37:25.000Z,12.09
2023-03-12T15:42:25.000Z,12.27
2023-03-12T15:47:26.000Z,11.54
2023-03-12T15:52:25.000Z,12.63
2023-03-12T15:57:25.000Z,12.94
2023-03-12T16:02:25.000Z,12.9
2023-03-12T16:07:25.000Z,13
2023-03-12T16:12:25.000Z,11.33
2023-03-12T16:17:25.000Z,11.07
2023-03-12T16:22:25.000Z,11.23
2023-03-12T16:27:24.000Z,11.88
2023-03-12T16:32:25.000Z,11.18
2023-03-12T16:37:25.000Z,11.01
2023-03-12T16:42:25.000Z,11.56
2023-03-12T16:47:25.000Z,11.4
2023-03-12T16:52:25.000Z,11.59
2023-03-12T16:57:25.000Z,10.88
2023-03-12T17:02:25.000Z,10.91
2023-03-12T17:07:25.000Z,11.88
2023-03-12T17:12:25.000Z,12.25
2023-03-12T17:17:26.000Z,11.33
2023-03-12T17:22:25.000Z,9.38
2023-03-12T17:27:25.000Z,9.85
2023-03-12T17:32:26.000Z,10.45
2023-03-12T17:37:25.000Z,11.71
2023-03-12T17:42:25.000Z,12.97
2023-03-12T17:47:26.000Z,10.9
2023-03-12T17:52:25.000Z,10.76
2023-03-12T17:57:25.000Z,11.74
2023-03-12T18:02:25.000Z,12.58
2023-03-12T18:07:26.000Z,12.25
2023-03-12T18:12:25.000Z,11.17
2023-03-12T18:17:25.000Z,9.92
2023-03-12T18:22:25.000Z,9.68
2023-03-12T18:27:25.000Z,9.55
2023-03-12T18:32:25.000Z,9.81
2023-03-12T18:37:25.000Z,11.45
2023-03-12T18:42:25.000Z,11.85
2023-03-12T18:47:26.000Z,10.81
2023-03-12T18:52:26.000Z,10.63
2023-03-12T18:57:25.000Z,10.65
2023-03-12T19:02:26.000Z,11.67
2023-03-12T19:07:25.000Z,10.78
2023-03-12T19:12:25.000Z,9.8
2023-03-12T19:17:26.000Z,10.03
2023-03-12T19:22:25.000Z,10.55
2023-03-12T19:27:25.000Z,10.8
2023-03-12T19:32:25.000Z,10.66
2023-03-12T19:37:25.000Z,10.35
2023-03-12T19:42:25.000Z,11.27
2023-03-12T19:47:25.000Z,10.71
2023-03-12T19:52:26.000Z,10.83
2023-03-12T19:57:25.000Z,10.55
2023-03-12T20:02:26.000Z,10.05
2023-03-12T20:07:25.000Z,9.19
2023-03-12T20:12:25.000Z,9.38
2023-03-12T20:17:25.000Z,10.71
2023-03-12T20:22:25.000Z,11.12
2023-03-12T20:27:25.000Z,11.42
2023-03-12T20:32:25.000Z,10.75
2023-03-12T20:37:25.000Z,9.98
2023-03-12T20:42:25.000Z,10.38
2023-03-12T20:47:25.000Z,9.89
2023-03-12T20:52:25.000Z,9.3
2023-03-12T20:57:25.000Z,10.22
2023-03-12T21:02:25.000Z,10.38
2023-03-12T21:07:25.000Z,10.57
2023-03-12T21:12:25.000Z,10.86
2023-03-12T21:17:26.000Z,10.74
2023-03-12T21:22:24.000Z,10.44
2023-03-12T21:27:25.000Z,10.66
2023-03-12T21:32:25.000Z,10.09
2023-03-12T21:37:24.000Z,10
2023-03-12T21:42:25.000Z,10.71
2023-03-12T21:47:25.000Z,11.59
2023-03-12T21:52:25.000Z,10.72
2023-03-12T21:57:25.000Z,9.92
2023-03-12T22:02:25.000Z,10.99
2023-03-12T22:07:25.000Z,12.25
2023-03-12T22:12:25.000Z,11.49
2023-03-12T22:17:25.000Z,10.99
2023-03-12T22:22:25.000Z,10.14
2023-03-12T22:27:26.000Z,9.67
2023-03-12T22:32:26.000Z,9.67
2023-03-12T22:37:24.000Z,9.98
2023-03-12T22:42:25.000Z,10.69
2023-03-12T22:47:25.000Z,11.71
2023-03-12T22:52:25.000Z,12.2
2023-03-12T22:57:25.000Z,11.12
2023-03-12T23:02:25.000Z,10.47
2023-03-12T23:07:25.000Z,10.11
2023-03-12T23:12:25.000Z,10.87
2023-03-12T23:17:25.000Z,11.02
2023-03-12T23:22:25.000Z,11.05
2023-03-12T23:27:25.000Z,11.79
2023-03-12T23:32:25.000Z,10.82
2023-03-12T23:37:25.000Z,10.49
2023-03-12T23:42:25.000Z,10.04
2023-03-12T23:47:25.000Z,9.57
2023-03-12T23:52:25.000Z,9.99
2023-03-12T23:57:25.000Z,10.64
